Time;durP1;ratioP1;P1;durP2;ratioP2;P2;SDS_P1;SDS_P2;PMS_P1;PMS_P2;Temp;Humidity;BMP_temperature;BMP_pressure;BME280_temperature;BME280_humidity;BME280_pressure;Samples;Min_cycle;Max_cycle;Signal;HPM_P1;HPM_P2
2021/04/11 00:01:39;;;;;;;2.17;1.70;;;20.80;27.10;;;;;;8461631;28;20035;-58
2021/04/11 00:05:40;;;;;;;4.35;1.83;;;20.80;27.10;;;;;;8459553;28;20028;-58
2021/04/11 00:09:41;;;;;;;3.17;2.25;;;20.80;27.10;;;;;;8461108;28;20388;-57
2021/04/11 00:13:42;;;;;;;1.85;1.65;;;20.80;27.50;;;;;;8465689;28;20044;-57
2021/04/11 00:17:44;;;;;;;3.65;2.00;;;20.70;27.10;;;;;;8459003;28;20115;-58
2021/04/11 00:21:46;;;;;;;4.43;2.33;;;20.70;27.10;;;;;;8460564;28;20047;-58
2021/04/11 00:25:48;;;;;;;2.17;1.83;;;20.70;27.10;;;;;;8460636;28;20134;-57
2021/04/11 00:29:48;;;;;;;2.40;1.60;;;20.70;27.10;;;;;;8458804;28;20059;-58
2021/04/11 00:33:49;;;;;;;3.10;1.67;;;20.70;27.20;;;;;;8465242;28;20072;-58
2021/04/11 00:37:49;;;;;;;2.33;1.70;;;20.70;27.20;;;;;;8487088;27;20055;-58
2021/04/11 00:41:55;;;;;;;2.93;1.67;;;20.60;27.10;;;;;;8474747;27;20484;-58
2021/04/11 00:46:17;;;;;;;2.97;2.13;;;20.60;27.20;;;;;;8459923;28;20082;-58
2021/04/11 00:50:18;;;;;;;2.25;1.85;;;20.60;27.20;;;;;;8458446;28;20027;-56
2021/04/11 00:54:19;;;;;;;2.47;2.00;;;20.60;27.20;;;;;;8464204;28;20042;-57
2021/04/11 00:58:25;;;;;;;2.75;1.63;;;20.60;27.20;;;;;;8459732;28;20039;-57
2021/04/11 01:02:26;;;;;;;2.47;1.90;;;20.60;27.20;;;;;;8457822;28;20039;-58
2021/04/11 01:06:31;;;;;;;1.80;1.38;;;20.60;27.30;;;;;;8459361;28;20601;-58
2021/04/11 01:10:36;;;;;;;2.05;1.52;;;20.60;27.30;;;;;;8463611;28;20036;-57
2021/04/11 01:14:37;;;;;;;2.72;1.80;;;20.60;27.30;;;;;;8457803;28;20054;-57
2021/04/11 01:18:40;;;;;;;;;;;20.50;27.30;;;;;;8459188;28;20043;-57
2021/04/11 01:22:58;;;;;;;2.15;1.55;;;20.50;27.30;;;;;;8458969;28;19943;-58
2021/04/11 01:26:59;;;;;;;2.15;1.52;;;20.50;27.30;;;;;;8459776;27;20059;-58
2021/04/11 01:31:05;;;;;;;2.23;1.67;;;20.50;27.40;;;;;;8497185;27;20046;-58
2021/04/11 01:35:08;;;;;;;3.47;2.00;;;20.50;27.40;;;;;;8464740;27;20479;-58
2021/04/11 01:39:18;;;;;;;3.78;1.70;;;20.50;27.40;;;;;;8456167;28;20051;-57
2021/04/11 01:43:20;;;;;;;3.28;1.88;;;20.40;27.40;;;;;;8458529;28;20484;-57
2021/04/11 01:47:20;;;;;;;2.45;1.70;;;20.40;27.40;;;;;;8460957;28;20044;-57
2021/04/11 01:51:25;;;;;;;2.70;1.87;;;20.50;27.40;;;;;;8457951;28;20122;-57
2021/04/11 01:55:28;;;;;;;2.53;1.83;;;20.40;27.40;;;;;;8458321;28;20035;-57
2021/04/11 01:59:29;;;;;;;2.65;1.75;;;20.40;27.40;;;;;;8456431;28;20446;-57
2021/04/11 02:03:30;;;;;;;1.70;1.47;;;20.40;27.40;;;;;;8458024;28;20031;-57
2021/04/11 02:07:30;;;;;;;3.13;1.63;;;20.40;27.40;;;;;;8462325;28;20518;-57
2021/04/11 02:11:32;;;;;;;4.07;2.37;;;20.30;27.40;;;;;;8456483;28;20036;-57
2021/04/11 02:15:41;;;;;;;2.25;1.70;;;20.30;27.40;;;;;;8457747;28;20039;-57
2021/04/11 02:19:41;;;;;;;1.92;1.63;;;20.30;27.40;;;;;;8469077;27;20074;-57
2021/04/11 02:23:43;;;;;;;2.83;1.60;;;20.40;27.40;;;;;;8501480;27;20035;-57
2021/04/11 02:27:44;;;;;;;2.50;1.52;;;20.30;27.40;;;;;;8465566;27;20030;-58
2021/04/11 02:31:45;;;;;;;2.08;1.63;;;20.30;27.40;;;;;;8464171;28;20119;-58
2021/04/11 02:35:46;;;;;;;2.60;1.70;;;20.20;27.30;;;;;;8462623;28;20125;-57
2021/04/11 02:39:48;;;;;;;3.30;1.83;;;20.30;27.40;;;;;;8464305;28;20066;-57
2021/04/11 02:43:49;;;;;;;2.85;1.67;;;20.30;27.40;;;;;;8468512;28;20392;-57
2021/04/11 02:47:52;;;;;;;3.67;1.83;;;20.30;27.40;;;;;;8462099;28;20038;-58
2021/04/11 02:51:54;;;;;;;2.80;1.60;;;20.20;27.40;;;;;;8463834;28;20387;-58
2021/04/11 02:55:54;;;;;;;;;;;20.30;27.50;;;;;;8463943;28;20023;-57
2021/04/11 02:59:55;;;;;;;1.77;1.43;;;20.30;27.50;;;;;;8466266;28;19927;-58
2021/04/11 03:03:57;;;;;;;1.92;1.67;;;20.20;27.50;;;;;;8463226;28;20036;-57
2021/04/11 03:08:03;;;;;;;1.80;1.60;;;20.20;27.50;;;;;;8462987;28;20380;-58
2021/04/11 03:12:05;;;;;;;2.15;1.60;;;20.20;27.50;;;;;;8461342;28;20476;-57
2021/04/11 03:16:06;;;;;;;3.83;1.85;;;20.20;27.50;;;;;;8463368;28;20089;-57
2021/04/11 03:20:09;;;;;;;2.17;1.50;;;20.20;27.50;;;;;;8467168;28;20226;-58
2021/04/11 03:24:10;;;;;;;2.83;1.83;;;20.20;27.50;;;;;;8460771;28;20028;-57
2021/04/11 03:28:21;;;;;;;2.20;1.73;;;20.20;27.50;;;;;;8462518;28;20042;-57
2021/04/11 03:32:51;;;;;;;1.65;1.30;;;20.20;27.50;;;;;;8460615;28;20063;-57
2021/04/11 03:36:53;;;;;;;2.53;1.63;;;20.20;27.50;;;;;;8459827;28;20395;-57
2021/04/11 03:40:57;;;;;;;2.03;1.30;;;20.20;27.50;;;;;;8466656;28;20044;-57
2021/04/11 03:44:58;;;;;;;3.97;1.63;;;20.20;27.50;;;;;;8460476;28;20487;-57
2021/04/11 03:49:26;;;;;;;2.47;1.90;;;20.20;27.50;;;;;;8462097;28;20027;-57
2021/04/11 03:53:39;;;;;;;2.53;1.67;;;20.20;27.50;;;;;;8459854;28;20031;-57
2021/04/11 03:57:51;;;;;;;1.98;1.35;;;20.20;27.50;;;;;;8462056;27;20089;-58
2021/04/11 04:01:55;;;;;;;3.83;1.88;;;20.20;27.50;;;;;;8466010;28;20110;-58
2021/04/11 04:06:03;;;;;;;2.30;1.58;;;20.10;27.50;;;;;;8487181;27;20489;-57
2021/04/11 04:10:06;;;;;;;2.45;1.67;;;20.10;27.50;;;;;;8476158;27;20035;-57
2021/04/11 04:14:24;;;;;;;2.30;1.63;;;20.20;27.50;;;;;;8461192;28;20473;-58
2021/04/11 04:18:59;;;;;;;1.50;1.40;;;20.20;27.50;;;;;;8459630;28;20054;-58
2021/04/11 04:23:10;;;;;;;4.10;1.50;;;20.30;27.40;;;;;;8465366;28;20063;-58
2021/04/11 04:27:36;;;;;;;2.50;1.45;;;20.30;27.40;;;;;;8458884;28;20031;-57
2021/04/11 04:32:06;;;;;;;1.83;1.40;;;20.30;27.40;;;;;;8460955;28;20039;-58
2021/04/11 04:36:06;;;;;;;1.95;1.38;;;20.40;27.40;;;;;;8458689;28;20123;-57
2021/04/11 04:40:13;;;;;;;2.00;1.40;;;20.40;27.40;;;;;;8460613;28;20475;-57
2021/04/11 04:44:22;;;;;;;2.25;1.85;;;20.50;27.40;;;;;;8461490;28;20028;-58
2021/04/11 04:48:31;;;;;;;1.88;1.58;;;20.50;27.40;;;;;;8429223;28;20377;-58
2021/04/11 04:52:32;;;;;;;3.17;1.60;;;20.50;27.40;;;;;;8452370;28;20047;-58
2021/04/11 04:56:39;;;;;;;2.33;1.63;;;20.60;27.50;;;;;;8473804;27;20039;-57
2021/04/11 05:00:44;;;;;;;3.05;1.90;;;20.60;27.40;;;;;;8486154;27;20059;-58
2021/04/11 05:04:56;;;;;;;2.63;1.60;;;20.60;27.40;;;;;;8463802;28;20085;-57
2021/04/11 05:09:08;;;;;;;2.25;1.50;;;20.60;27.50;;;;;;8457581;28;20043;-58
2021/04/11 05:13:20;;;;;;;1.52;1.23;;;20.60;27.40;;;;;;8459566;27;20046;-57
2021/04/11 05:17:29;;;;;;;2.83;1.60;;;20.70;27.40;;;;;;8457344;28;20078;-57
2021/04/11 05:21:35;;;;;;;1.80;1.40;;;20.70;27.40;;;;;;8465520;27;20053;-58
2021/04/11 05:25:44;;;;;;;3.22;1.55;;;20.70;27.40;;;;;;8497338;27;20059;-58
2021/04/11 05:30:10;;;;;;;1.95;1.63;;;20.80;27.50;;;;;;8457533;27;20047;-57
2021/04/11 05:34:14;;;;;;;2.38;1.40;;;20.80;27.40;;;;;;8458486;28;20118;-58
2021/04/11 05:38:20;;;;;;;1.92;1.70;;;20.80;27.40;;;;;;8458381;28;20221;-57
2021/04/11 05:42:43;;;;;;;1.50;1.23;;;20.80;27.40;;;;;;8457180;28;20496;-57
2021/04/11 05:46:52;;;;;;;2.63;1.80;;;20.80;27.40;;;;;;8458480;28;20042;-58
2021/04/11 05:51:04;;;;;;;1.45;1.20;;;20.90;27.50;;;;;;8461102;28;20031;-58
2021/04/11 05:55:07;;;;;;;2.65;1.48;;;20.90;27.50;;;;;;8458166;28;20054;-57
2021/04/11 05:59:16;;;;;;;1.27;1.17;;;20.90;27.40;;;;;;8458058;28;20135;-58
2021/04/11 06:03:22;;;;;;;2.78;1.48;;;20.90;27.40;;;;;;8456136;28;20040;-58
2021/04/11 06:07:35;;;;;;;2.03;1.50;;;20.90;27.40;;;;;;8462642;28;20019;-57
2021/04/11 06:11:38;;;;;;;2.90;1.73;;;20.90;27.40;;;;;;8427264;28;20047;-58
2021/04/11 06:15:52;;;;;;;2.13;1.58;;;20.90;27.40;;;;;;8475137;28;20489;-56
2021/04/11 06:19:53;;;;;;;1.85;1.35;;;20.90;27.40;;;;;;8474196;27;20052;-57
2021/04/11 06:24:36;;;;;;;1.77;1.10;;;20.90;27.50;;;;;;8456030;28;20388;-58
2021/04/11 06:28:48;;;;;;;2.53;1.55;;;20.90;27.50;;;;;;8457570;28;20282;-58
2021/04/11 06:32:53;;;;;;;2.05;1.27;;;20.90;27.40;;;;;;8460587;28;20032;-58
2021/04/11 06:37:01;;;;;;;1.67;1.40;;;20.90;27.40;;;;;;8457705;28;20047;-58
2021/04/11 06:41:20;;;;;;;2.78;1.60;;;20.90;27.40;;;;;;8457513;28;20411;-58
2021/04/11 06:45:39;;;;;;;2.53;1.58;;;20.90;27.40;;;;;;8455767;28;20119;-58
2021/04/11 06:50:15;;;;;;;2.15;1.70;;;20.90;27.40;;;;;;8457431;28;20110;-57
2021/04/11 06:54:45;;;;;;;2.53;1.60;;;21.00;27.40;;;;;;8457266;28;20031;-58
2021/04/11 06:59:28;;;;;;;2.55;1.70;;;21.00;27.30;;;;;;8428015;28;20051;-58
2021/04/11 07:03:52;;;;;;;1.95;1.40;;;21.00;27.30;;;;;;8447769;28;20059;-59
2021/04/11 07:08:11;;;;;;;1.80;1.40;;;21.10;27.30;;;;;;8463410;28;20391;-58
2021/04/11 07:13:01;;;;;;;2.55;1.52;;;21.10;27.20;;;;;;8461365;28;20059;-58
2021/04/11 07:17:35;;;;;;;1.90;1.58;;;21.20;27.20;;;;;;8462880;28;20585;-58
2021/04/11 07:21:52;;;;;;;1.85;1.45;;;21.20;27.20;;;;;;8472137;27;20050;-58
2021/04/11 07:26:03;;;;;;;2.40;1.50;;;21.20;27.20;;;;;;8493056;27;20108;-58
2021/04/11 07:30:38;;;;;;;1.85;1.50;;;21.20;27.20;;;;;;8465393;28;20193;-58
2021/04/11 07:34:57;;;;;;;2.35;1.63;;;21.30;27.20;;;;;;8464581;28;20043;-58
2021/04/11 07:39:12;;;;;;;1.98;1.60;;;21.30;27.20;;;;;;8460372;28;20039;-58
2021/04/11 07:43:35;;;;;;;1.73;1.42;;;21.30;27.20;;;;;;8462382;28;20058;-58
2021/04/11 07:47:50;;;;;;;1.80;1.40;;;21.30;27.20;;;;;;8460349;28;20035;-58
2021/04/11 07:52:10;;;;;;;1.23;1.13;;;21.30;27.20;;;;;;8462388;27;20058;-58
2021/04/11 07:56:38;;;;;;;2.67;1.60;;;21.30;27.20;;;;;;8466069;28;20043;-59
2021/04/11 08:01:07;;;;;;;2.85;1.50;;;21.40;27.20;;;;;;8461313;28;20043;-57
2021/04/11 08:05:32;;;;;;;3.50;1.63;;;21.40;27.30;;;;;;8461254;28;20403;-57
2021/04/11 08:10:00;;;;;;;1.90;1.40;;;21.40;27.20;;;;;;8459909;28;20040;-58
2021/04/11 08:14:19;;;;;;;2.53;1.20;;;21.40;27.30;;;;;;8461269;28;20040;-58
2021/04/11 08:18:48;;;;;;;3.03;1.98;;;21.40;27.30;;;;;;8458546;28;20059;-58
2021/04/11 08:23:09;;;;;;;2.08;1.50;;;21.40;27.30;;;;;;8461025;28;20043;-58
2021/04/11 08:27:54;;;;;;;2.10;1.40;;;21.40;27.30;;;;;;8463450;28;20462;-57
2021/04/11 08:32:24;;;;;;;1.50;1.20;;;21.30;27.30;;;;;;8463268;28;20036;-54
2021/04/11 08:36:36;;;;;;;1.90;1.48;;;21.40;27.30;;;;;;8435514;28;20080;-58
2021/04/11 08:41:00;;;;;;;1.40;1.30;;;21.30;27.30;;;;;;8459970;28;20104;-58
2021/04/11 08:45:22;;;;;;;1.77;1.25;;;21.40;27.30;;;;;;8458322;28;20047;-58
2021/04/11 08:49:25;;;;;;;3.25;1.55;;;21.40;27.30;;;;;;8441531;28;20040;-58
2021/04/11 08:53:33;;;;;;;1.90;1.40;;;21.40;27.30;;;;;;8462602;28;20024;-57
2021/04/11 08:57:49;;;;;;;1.83;1.17;;;21.40;27.30;;;;;;8459880;28;20067;-58
2021/04/11 09:01:52;;;;;;;1.48;1.20;;;21.40;27.30;;;;;;8459641;28;20023;-58
2021/04/11 09:06:21;;;;;;;2.10;1.30;;;21.40;27.30;;;;;;8457992;28;20031;-58
2021/04/11 09:10:40;;;;;;;2.90;1.30;;;21.40;27.30;;;;;;8459666;28;20392;-57
2021/04/11 09:15:00;;;;;;;1.70;1.27;;;21.40;27.30;;;;;;8460000;28;20100;-58
2021/04/11 09:19:18;;;;;;;1.75;1.50;;;21.50;27.30;;;;;;8429736;28;20423;-58
2021/04/11 09:23:37;;;;;;;1.55;1.17;;;21.50;27.30;;;;;;8452673;28;20034;-56
2021/04/11 09:28:02;;;;;;;2.22;1.38;;;21.50;27.30;;;;;;8479795;27;20429;-58
2021/04/11 09:32:30;;;;;;;1.50;1.40;;;21.50;27.30;;;;;;8478270;27;20122;-57
2021/04/11 09:36:49;;;;;;;1.70;1.40;;;21.50;27.30;;;;;;8465299;27;20130;-57
2021/04/11 09:41:08;;;;;;;2.53;1.35;;;21.50;27.30;;;;;;8491040;27;20035;-58
2021/04/11 09:45:43;;;;;;;1.20;1.10;;;21.50;27.30;;;;;;8461205;28;20035;-58
2021/04/11 09:50:00;;;;;;;2.45;1.30;;;21.60;27.30;;;;;;8415852;28;20043;-58
2021/04/11 09:54:24;;;;;;;2.35;1.70;;;21.60;27.30;;;;;;8447804;28;20024;-57
2021/04/11 09:58:55;;;;;;;1.98;1.75;;;21.60;27.30;;;;;;8457745;28;20046;-58
2021/04/11 10:03:33;;;;;;;2.37;1.30;;;21.60;27.30;;;;;;8456261;28;20373;-57
2021/04/11 10:07:59;;;;;;;2.33;1.40;;;21.60;27.30;;;;;;8457907;28;20088;-57
2021/04/11 10:12:19;;;;;;;1.80;1.38;;;21.60;27.30;;;;;;8456429;28;20036;-58
2021/04/11 10:16:25;;;;;;;2.10;1.40;;;21.60;27.30;;;;;;8462261;28;20040;-58
2021/04/11 10:20:41;;;;;;;1.50;1.08;;;21.60;27.30;;;;;;8455691;28;20040;-58
2021/04/11 10:25:19;;;;;;;1.30;1.20;;;21.60;27.30;;;;;;8457684;28;20040;-58
2021/04/11 10:29:25;;;;;;;1.25;1.10;;;21.60;27.30;;;;;;8455895;28;20088;-55
2021/04/11 10:33:50;;;;;;;1.33;1.23;;;21.60;27.30;;;;;;8457733;28;20039;-57
2021/04/11 10:37:56;;;;;;;2.47;1.33;;;21.60;27.30;;;;;;8462080;28;20139;-57
2021/04/11 10:42:08;;;;;;;2.17;1.58;;;21.60;27.30;;;;;;8464143;28;20131;-57
2021/04/11 10:46:12;;;;;;;2.17;1.50;;;21.60;27.30;;;;;;8464059;27;20065;-57
2021/04/11 10:50:44;;;;;;;2.40;1.77;;;21.70;27.30;;;;;;8463730;28;20499;-58
2021/04/11 10:55:11;;;;;;;2.53;1.35;;;21.70;27.30;;;;;;8460234;28;20035;-59
2021/04/11 10:59:43;;;;;;;2.22;1.35;;;21.70;27.30;;;;;;8466951;27;20249;-56
2021/04/11 11:04:04;;;;;;;1.52;1.17;;;21.70;27.30;;;;;;8500639;27;20107;-58
2021/04/11 11:08:30;;;;;;;2.08;1.50;;;21.70;27.30;;;;;;8434140;28;20540;-58
2021/04/11 11:12:59;;;;;;;3.53;1.33;;;21.70;27.30;;;;;;8457416;28;20031;-58
2021/04/11 11:17:34;;;;;;;1.88;1.35;;;21.70;27.30;;;;;;8463124;28;20136;-58
2021/04/11 11:22:12;;;;;;;1.88;1.33;;;21.70;27.20;;;;;;8461910;28;20039;-58
2021/04/11 11:26:31;;;;;;;1.38;1.23;;;21.80;27.20;;;;;;8475303;27;20131;-55
2021/04/11 11:30:40;;;;;;;2.20;1.55;;;21.80;27.10;;;;;;8489728;27;20082;-58
2021/04/11 11:34:51;;;;;;;2.60;1.70;;;21.90;27.20;;;;;;8467072;28;20039;-58
2021/04/11 11:39:22;;;;;;;3.85;2.30;;;21.90;27.10;;;;;;8460810;28;20042;-58
2021/04/11 11:43:56;;;;;;;6.30;3.17;;;21.90;27.10;;;;;;8462553;28;20036;-56
2021/04/11 11:48:15;;;;;;;4.18;2.50;;;21.90;27.10;;;;;;8460559;28;20032;-56
2021/04/11 11:52:38;;;;;;;3.60;2.60;;;21.90;27.10;;;;;;8462572;27;20396;-56
2021/04/11 11:56:57;;;;;;;6.43;3.55;;;22.00;27.20;;;;;;8458520;27;20039;-55
2021/04/11 12:01:06;;;;;;;6.38;3.78;;;22.00;27.10;;;;;;8476841;27;20035;-50
2021/04/11 12:05:23;;;;;;;7.45;3.67;;;21.90;27.20;;;;;;8463070;27;20035;-54
2021/04/11 12:09:46;;;;;;;9.60;4.05;;;21.80;27.50;;;;;;8454556;28;20089;-54
2021/04/11 12:13:53;;;;;;;10.00;2.97;;;21.70;27.60;;;;;;8471704;27;20058;-53
2021/04/11 12:17:58;;;;;;;10.88;3.03;;;21.70;27.80;;;;;;8475356;27;20035;-53
2021/04/11 12:22:06;;;;;;;7.50;2.88;;;21.60;28.10;;;;;;8453545;27;20388;-54
2021/04/11 12:26:17;;;;;;;6.78;3.17;;;21.70;27.90;;;;;;8431659;28;20392;-52
2021/04/11 12:30:36;;;;;;;18.47;9.80;;;21.70;27.90;;;;;;8484338;27;20031;-54
2021/04/11 12:35:16;;;;;;;9.35;5.60;;;21.60;28.20;;;;;;8460897;28;20057;-57
2021/04/11 12:39:30;;;;;;;14.80;6.13;;;21.70;27.90;;;;;;8446281;28;20492;-56
2021/04/11 12:43:42;;;;;;;13.10;6.18;;;21.80;27.80;;;;;;8460032;28;20040;-57
2021/04/11 12:48:18;;;;;;;10.88;6.35;;;21.90;27.60;;;;;;8463149;28;20036;-56
2021/04/11 12:52:52;;;;;;;13.65;6.25;;;22.00;28.00;;;;;;8431316;28;20043;-57
2021/04/11 12:57:06;;;;;;;10.15;6.25;;;22.00;27.50;;;;;;8456461;28;20066;-57
2021/04/11 13:01:19;;;;;;;10.23;6.20;;;22.10;27.90;;;;;;8459689;28;20408;-56
2021/04/11 13:05:34;;;;;;;13.18;7.32;;;22.10;27.40;;;;;;8472025;27;20451;-55
2021/04/11 13:09:45;;;;;;;12.20;6.95;;;22.20;27.40;;;;;;8486034;27;20155;-56
2021/04/11 13:13:55;;;;;;;12.35;7.18;;;22.10;27.30;;;;;;8463912;28;20047;-50
2021/04/11 13:18:02;;;;;;;23.55;6.15;;;22.20;27.30;;;;;;8480088;27;20036;-51
2021/04/11 13:22:11;;;;;;;36.47;8.10;;;22.10;27.40;;;;;;8450229;28;20081;-48
2021/04/11 13:26:35;;;;;;;53.50;7.80;;;22.10;27.90;;;;;;8459026;27;20040;-51
2021/04/11 13:30:58;;;;;;;23.90;5.00;;;22.00;28.70;;;;;;8456796;28;20047;-50
2021/04/11 13:35:26;;;;;;;29.50;5.38;;;22.10;28.90;;;;;;8444439;28;20127;-49
2021/04/11 13:39:34;;;;;;;20.13;4.65;;;22.00;28.60;;;;;;8459563;28;20067;-53
2021/04/11 13:43:53;;;;;;;12.25;3.05;;;22.00;28.50;;;;;;8458840;28;20479;-53
2021/04/11 13:48:06;;;;;;;20.17;3.47;;;22.10;28.50;;;;;;8457817;27;20031;-50
2021/04/11 13:52:29;;;;;;;16.23;3.50;;;22.10;28.50;;;;;;8477061;27;20081;-53
2021/04/11 13:56:51;;;;;;;20.85;4.07;;;22.10;28.10;;;;;;8456914;28;20445;-51
2021/04/11 14:01:17;;;;;;;8.40;3.95;;;22.20;28.00;;;;;;8458881;28;20530;-53
2021/04/11 14:05:27;;;;;;;13.38;4.28;;;22.20;27.90;;;;;;8462811;28;20355;-54
2021/04/11 14:09:41;;;;;;;13.68;4.25;;;22.20;27.80;;;;;;8457401;28;20032;-49
2021/04/11 14:14:28;;;;;;;28.90;5.15;;;22.20;28.00;;;;;;8452757;28;20093;-56
2021/04/11 14:18:47;;;;;;;28.80;4.25;;;22.10;28.30;;;;;;8439858;28;20544;-54
2021/04/11 14:23:14;;;;;;;24.05;4.88;;;22.10;28.80;;;;;;8465163;28;20096;-55
2021/04/11 14:27:26;;;;;;;19.63;4.45;;;22.20;28.50;;;;;;8467136;27;20038;-53
2021/04/11 14:31:39;;;;;;;20.65;3.92;;;22.20;28.30;;;;;;8503064;27;20088;-54
2021/04/11 14:35:56;;;;;;;17.65;4.50;;;22.20;28.10;;;;;;8464583;27;20361;-54
2021/04/11 14:40:04;;;;;;;19.80;4.68;;;22.30;28.10;;;;;;8464097;28;20047;-53
2021/04/11 14:44:05;;;;;;;17.10;4.65;;;22.30;28.10;;;;;;8464335;28;20093;-54
2021/04/11 14:48:09;;;;;;;13.25;4.80;;;22.30;28.00;;;;;;8462395;28;20061;-54
2021/04/11 14:52:30;;;;;;;21.75;5.35;;;22.30;28.10;;;;;;8468512;28;20484;-55
2021/04/11 14:56:47;;;;;;;9.93;4.47;;;22.30;28.00;;;;;;8493594;27;20118;-54
2021/04/11 15:01:11;;;;;;;16.55;4.50;;;22.30;28.10;;;;;;8472965;27;20559;-55
2021/04/11 15:05:24;;;;;;;11.02;4.72;;;22.30;28.10;;;;;;8463872;28;20050;-54
2021/04/11 15:09:28;;;;;;;14.40;5.10;;;22.30;28.00;;;;;;8461833;28;20318;-54
2021/04/11 15:13:49;;;;;;;10.02;4.45;;;22.40;28.10;;;;;;8467847;28;20418;-55
2021/04/11 15:18:10;;;;;;;13.93;4.80;;;22.40;28.00;;;;;;8432132;28;20036;-55
2021/04/11 15:22:33;;;;;;;7.93;3.87;;;22.30;28.00;;;;;;8457859;28;20042;-54
2021/04/11 15:26:41;;;;;;;10.60;4.35;;;22.30;28.00;;;;;;8460754;28;20077;-53
2021/04/11 15:30:46;;;;;;;11.13;4.60;;;22.40;28.00;;;;;;8462630;28;20516;-55
2021/04/11 15:34:50;;;;;;;13.98;4.93;;;22.40;28.10;;;;;;8462571;28;20036;-55
2021/04/11 15:38:54;;;;;;;9.50;3.97;;;22.40;28.00;;;;;;8464721;28;20039;-55
2021/04/11 15:43:27;;;;;;;7.88;3.75;;;22.40;28.10;;;;;;8462232;28;20047;-55
2021/04/11 15:47:52;;;;;;;10.50;3.78;;;22.40;28.00;;;;;;8460900;27;20134;-54
2021/04/11 15:52:11;;;;;;;12.88;3.80;;;22.40;28.00;;;;;;8462020;28;20035;-55
2021/04/11 15:56:12;;;;;;;5.38;3.63;;;22.30;28.00;;;;;;8462005;28;20027;-53
2021/04/11 16:00:12;;;;;;;8.93;4.30;;;22.30;28.10;;;;;;8464617;28;20130;-55
2021/04/11 16:04:30;;;;;;;6.93;3.17;;;22.40;28.10;;;;;;8461509;28;20027;-54
2021/04/11 16:08:36;;;;;;;6.78;3.55;;;22.40;28.10;;;;;;8459731;28;20286;-55
2021/04/11 16:12:42;;;;;;;9.07;3.13;;;22.40;28.00;;;;;;8461688;28;20036;-55
2021/04/11 16:17:02;;;;;;;7.20;3.53;;;22.30;28.00;;;;;;8467022;27;20387;-55
2021/04/11 16:21:40;;;;;;;6.68;3.20;;;22.40;28.00;;;;;;8497910;27;20138;-55
2021/04/11 16:25:51;;;;;;;6.03;2.75;;;22.30;28.00;;;;;;8413539;28;20036;-54
2021/04/11 16:29:54;;;;;;;5.68;3.40;;;22.30;28.00;;;;;;8483714;27;20062;-55
2021/04/11 16:34:17;;;;;;;9.15;3.35;;;22.40;28.00;;;;;;8473692;27;20036;-54
2021/04/11 16:38:39;;;;;;;7.35;3.30;;;22.40;28.00;;;;;;8459683;28;20070;-56
2021/04/11 16:42:50;;;;;;;7.30;2.88;;;22.40;28.00;;;;;;8458725;28;20034;-55
2021/04/11 16:46:59;;;;;;;4.82;2.72;;;22.30;28.00;;;;;;8464783;28;20502;-55
2021/04/11 16:51:06;;;;;;;5.32;3.38;;;22.40;28.00;;;;;;8458069;28;20059;-56
2021/04/11 16:55:18;;;;;;;7.30;3.75;;;22.30;28.00;;;;;;8459822;28;20031;-55
2021/04/11 16:59:25;;;;;;;7.35;3.80;;;22.30;28.00;;;;;;8457675;28;20138;-54
2021/04/11 17:04:03;;;;;;;8.90;4.03;;;22.40;28.00;;;;;;8459701;28;20043;-55
2021/04/11 17:08:17;;;;;;;6.38;3.70;;;22.40;28.00;;;;;;8459343;28;20387;-55
2021/04/11 17:12:45;;;;;;;6.40;3.50;;;22.30;28.00;;;;;;8462099;28;20024;-54
2021/04/11 17:17:05;;;;;;;5.15;3.17;;;22.30;28.00;;;;;;8459289;28;20028;-55
2021/04/11 17:21:19;;;;;;;6.63;4.50;;;22.30;28.00;;;;;;8479973;27;20173;-55
2021/04/11 17:25:44;;;;;;;9.48;4.68;;;22.30;28.00;;;;;;8492386;27;20035;-55
2021/04/11 17:29:49;;;;;;;5.63;3.72;;;22.20;28.00;;;;;;8490768;27;20087;-55
2021/04/11 17:33:58;;;;;;;7.05;3.67;;;22.20;28.00;;;;;;8497409;27;20036;-55
2021/04/11 17:38:10;;;;;;;5.97;3.42;;;22.20;28.00;;;;;;8460944;28;20036;-55
2021/04/11 17:42:41;;;;;;;6.18;3.35;;;22.20;28.00;;;;;;8456941;28;20034;-55
2021/04/11 17:46:48;;;;;;;7.13;3.75;;;22.20;28.00;;;;;;8458634;27;20042;-55
2021/04/11 17:51:07;;;;;;;5.32;2.80;;;22.20;28.00;;;;;;8456873;28;20475;-55
2021/04/11 17:55:14;;;;;;;8.27;3.72;;;22.20;28.10;;;;;;8458733;28;23869;-55
2021/04/11 17:59:36;;;;;;;5.90;3.67;;;22.10;28.10;;;;;;8462537;28;20040;-57
2021/04/11 18:04:01;;;;;;;5.88;3.90;;;22.10;28.10;;;;;;8456754;28;20035;-55
2021/04/11 18:08:12;;;;;;;7.30;3.75;;;22.10;28.10;;;;;;8457848;28;20480;-55
2021/04/11 18:12:43;;;;;;;8.80;3.53;;;22.10;28.10;;;;;;8456271;28;20497;-55
2021/04/11 18:17:14;;;;;;;7.13;4.20;;;22.10;28.00;;;;;;8457822;28;20515;-55
2021/04/11 18:21:33;;;;;;;6.68;3.72;;;22.20;28.00;;;;;;8459006;28;20508;-56
2021/04/11 18:26:03;;;;;;;6.20;3.67;;;22.20;28.00;;;;;;8496262;27;20040;-57
2021/04/11 18:30:05;;;;;;;6.25;3.47;;;22.20;28.20;;;;;;8493102;28;20050;-56
2021/04/11 18:34:29;;;;;;;6.55;3.25;;;22.20;28.00;;;;;;8466917;28;20081;-56
2021/04/11 18:38:32;;;;;;;5.78;3.28;;;22.20;28.00;;;;;;8455933;28;20486;-55
2021/04/11 18:42:58;;;;;;;5.22;3.50;;;22.20;28.10;;;;;;8457476;28;20062;-56
2021/04/11 18:47:16;;;;;;;5.38;2.95;;;22.20;28.10;;;;;;8457371;28;20036;-54
2021/04/11 18:51:38;;;;;;;4.85;2.90;;;22.20;28.10;;;;;;8460172;28;20073;-56
2021/04/11 18:56:05;;;;;;;4.82;2.90;;;22.20;28.10;;;;;;8457198;28;20035;-54
2021/04/11 19:00:28;;;;;;;5.15;3.15;;;22.20;28.20;;;;;;8455742;28;20449;-56
2021/04/11 19:04:48;;;;;;;4.93;2.97;;;22.20;28.20;;;;;;8463650;28;20547;-56
2021/04/11 19:09:20;;;;;;;4.80;2.92;;;22.20;28.20;;;;;;8461571;28;20028;-55
2021/04/11 19:13:38;;;;;;;3.72;2.88;;;22.20;28.20;;;;;;8463352;28;20052;-55
2021/04/11 19:17:51;;;;;;;4.13;2.50;;;22.20;28.30;;;;;;8465943;28;20097;-55
2021/04/11 19:22:17;;;;;;;4.68;2.88;;;22.20;28.30;;;;;;8463172;28;20074;-56
2021/04/11 19:26:35;;;;;;;5.22;2.80;;;22.20;28.30;;;;;;8463049;28;20084;-56
2021/04/11 19:31:19;;;;;;;3.50;2.60;;;22.10;28.30;;;;;;8461530;28;20031;-56
2021/04/11 19:35:22;;;;;;;4.30;2.42;;;22.10;28.30;;;;;;8461013;28;20384;-54
2021/04/11 19:40:01;;;;;;;3.22;2.42;;;22.10;28.40;;;;;;8467085;27;20501;-56
2021/04/11 19:44:17;;;;;;;4.68;2.30;;;22.10;28.40;;;;;;8496897;27;20039;-56
2021/04/11 19:48:22;;;;;;;3.15;2.25;;;22.00;28.50;;;;;;8431096;28;20117;-55
2021/04/11 19:52:38;;;;;;;4.70;2.63;;;22.00;28.50;;;;;;8455624;28;20039;-55
2021/04/11 19:57:10;;;;;;;3.83;2.28;;;22.00;28.50;;;;;;8460403;28;20047;-54
2021/04/11 20:01:18;;;;;;;3.22;2.25;;;22.00;28.60;;;;;;8474744;27;20035;-55
2021/04/11 20:05:35;;;;;;;2.83;2.40;;;22.00;28.60;;;;;;8490287;27;20369;-54
2021/04/11 20:10:20;;;;;;;3.13;2.30;;;22.00;28.60;;;;;;8465001;28;20031;-56
2021/04/11 20:14:38;;;;;;;2.95;2.20;;;21.90;28.50;;;;;;8412333;28;20047;-54
2021/04/11 20:18:58;;;;;;;4.85;2.42;;;21.90;28.60;;;;;;8461215;28;20512;-55
2021/04/11 20:23:20;;;;;;;2.33;1.95;;;21.90;28.60;;;;;;8461421;28;20036;-55
2021/04/11 20:27:42;;;;;;;3.58;1.65;;;21.90;28.60;;;;;;8459671;28;20050;-55
2021/04/11 20:32:09;;;;;;;2.78;2.40;;;21.90;28.70;;;;;;8461094;28;20036;-55
2021/04/11 20:36:45;;;;;;;5.68;2.53;;;21.90;28.70;;;;;;8458854;28;20036;-54
2021/04/11 20:41:23;;;;;;;3.10;2.20;;;21.90;28.70;;;;;;8465169;28;20176;-55
2021/04/11 20:45:39;;;;;;;2.88;2.00;;;21.90;28.70;;;;;;8429642;28;20036;-54
2021/04/11 20:49:57;;;;;;;2.70;2.00;;;21.80;28.70;;;;;;8454229;28;20027;-55
2021/04/11 20:54:27;;;;;;;4.00;2.58;;;21.80;28.90;;;;;;8458591;28;20039;-55
2021/04/11 20:58:39;;;;;;;2.50;1.70;;;21.80;28.70;;;;;;8473204;27;20191;-54
2021/04/11 21:03:00;;;;;;;3.25;1.90;;;21.80;28.70;;;;;;8486415;27;20415;-55
2021/04/11 21:07:29;;;;;;;2.40;1.80;;;21.70;28.60;;;;;;8464545;28;20024;-54
2021/04/11 21:11:41;;;;;;;2.30;2.10;;;21.70;28.50;;;;;;8428766;28;20144;-55
2021/04/11 21:16:03;;;;;;;3.42;2.00;;;21.70;28.60;;;;;;8454187;28;20040;-55
2021/04/11 21:20:35;;;;;;;2.60;1.73;;;21.70;28.60;;;;;;8459965;28;20456;-55
2021/04/11 21:24:53;;;;;;;3.45;1.90;;;21.70;28.50;;;;;;8457549;28;20071;-55
2021/04/11 21:29:08;;;;;;;2.45;1.70;;;21.70;28.50;;;;;;8459154;28;20054;-55
2021/04/11 21:33:52;;;;;;;2.28;1.77;;;21.60;28.50;;;;;;8461886;28;20038;-55
2021/04/11 21:38:14;;;;;;;3.95;1.80;;;21.60;28.50;;;;;;8429690;28;20119;-55
2021/04/11 21:42:41;;;;;;;2.03;1.50;;;21.60;28.60;;;;;;8487747;27;20059;-54
2021/04/11 21:46:50;;;;;;;2.63;1.60;;;21.50;28.60;;;;;;8466425;27;20544;-55
2021/04/11 21:50:59;;;;;;;3.33;1.60;;;21.60;28.60;;;;;;8457339;28;20376;-55
2021/04/11 21:55:14;;;;;;;2.58;1.40;;;21.50;28.60;;;;;;8458622;28;20024;-54
2021/04/11 21:59:38;;;;;;;2.40;1.70;;;21.50;28.90;;;;;;8459293;28;20058;-55
2021/04/11 22:03:51;;;;;;;1.83;1.60;;;21.50;28.70;;;;;;8460493;28;20036;-55
2021/04/11 22:08:14;;;;;;;2.92;1.70;;;21.50;28.60;;;;;;8458206;28;20516;-54